Terminal Aerodrome Forecast
Issued by NWS Portland, OR

Home | Current Version | Previous Version | Text Only | Print | Product List | Glossary On
Versions: 1 2 3 4 5 6 7 8 9 10 11 12 13 14 15 16 17 18 19
000
FTUS46 KPQR 290059 AAA
TAFSLE
TAF AMD
KSLE 290059Z 2901/2924 18010KT P6SM OVC080
     FM290500 18010KT P6SM -RA BKN035 OVC050
     FM290900 18015G23KT P6SM -RA BKN022 OVC035
     FM291300 18015G23KT 5SM -RA BR BKN015 OVC030
     FM292000 19011KT P6SM -SHRA SCT020 OVC035=

USA.gov is the U.S. government's official web portal to all federal, state and local government web resources and services.